• Join FlightAware (Why Join?)
  • Login
  • US Flag 
08:50AM EST


 

Airport Tracker/Info


-or-


 

Live Flight TrackerFlight Track Log ✈ JBU917 ✈ 07-May-2013 ✈ KJFK - KORD

Flight Track Log - Related Links

Times and Time Zones

All times are in EDT time to prevent confusion due to time zone crossing. See the JBU917 flight status page for this flight to view local times or setup timezone preferences in your user account.

Time Position Orientation Groundspeed Altitude Reporting Facility
EDT Latitude Longitude Course Direction KTS MPH feet Rate Location/Type
08:47PM 40.6333 -73.7167 312° West 179 206 2,400  Level New York TRACON
08:48PM 40.6667 -73.6500 57° Northeast 243 280 4,800 2,700 Climbing New York TRACON
08:49PM 40.8789 -74.2390 306° West  Level FlightAware Approximate
08:49PM 40.7167 -73.5833 45° Northeast 276 318 7,900  Level New York TRACON
08:50PM 40.9440 -74.3583 306° West  Level FlightAware Approximate
08:50PM 40.7833 -73.5167 37° Northeast 286 329 10,800  Level New York TRACON
08:51PM 41.0118 -74.4736 304° West  Level FlightAware Approximate
08:51PM 40.8500 -73.5333 349° North 326 375 12,900  Level New York TRACON
08:52PM 41.0734 -74.5934 312° West  Level FlightAware Approximate
08:53PM 40.9581 -73.7194 308° West 400 460 16,600  Level New York Center
08:54PM 41.0153 -73.8539 299° West 389 448 17,000 600 Climbing New York Center
08:55PM 41.0328 -73.9756 281° West 377 434 17,800 1,260 Climbing New York Center
08:56PM 41.0622 -74.1119 286° West 382 440 19,600 1,860 Climbing New York Center
08:57PM 41.1058 -74.2628 291° West 392 451 21,600 1,740 Climbing New York Center
08:58PM 41.1533 -74.4111 293° West 404 465 23,200 1,560 Climbing New York Center
08:59PM 41.1986 -74.5625 292° West 426 490 24,800 1,380 Climbing New York Center
09:00PM 41.2458 -74.7114 293° West 442 509 26,100 1,380 Climbing New York Center
09:01PM 41.2925 -74.8661 292° West 448 516 27,600 1,260 Climbing New York Center
09:02PM 41.3372 -75.0181 291° West 465 535 28,700 1,140 Climbing New York Center
09:03PM 41.3856 -75.1786 292° West 470 541 30,000 1,260 Climbing New York Center
09:04PM 41.4336 -75.3394 292° West 470 541 31,300 1,500 Climbing New York Center
09:05PM 41.4794 -75.5003 291° West 470 541 33,000 1,440 Climbing New York Center
09:06PM 41.5267 -75.6700 290° West 458 527 34,200 1,020 Climbing New York Center
09:07PM 41.5686 -75.8089 292° West 453 521 35,100 840 Climbing New York Center
09:08PM 41.6142 -75.9622 292° West 448 516 36,000 420 Climbing New York Center
09:09PM 41.6592 -76.1211 291° West 453 521 36,000  Level New York Center
09:10PM 41.7019 -76.2803 290° West 458 527 36,000  Level New York Center
09:11PM 41.7461 -76.4450 290° West 458 527 36,000  Level New York Center
09:12PM 41.7981 -76.6219 292° West 458 527 36,000  Level New York Center
09:13PM 41.8419 -76.7847 290° West 458 527 36,000  Level New York Center
09:14PM 41.8972 -76.9814 291° West 460 529 36,000  Level Cleveland Center
09:15PM 41.9400 -77.1467 289° West 460 529 36,000  Level Cleveland Center
09:16PM 41.9842 -77.3064 290° West 460 529 36,000  Level Cleveland Center
09:17PM 42.0264 -77.4719 289° West 460 529 36,000  Level Cleveland Center
09:18PM 42.0722 -77.6347 291° West 460 529 36,000  Level Cleveland Center
09:19PM 42.1119 -77.7981 288° West 460 529 36,000  Level Cleveland Center
09:20PM 42.1575 -77.9642 290° West 460 529 36,000  Level Cleveland Center
09:21PM 42.2006 -78.1250 290° West 465 535 36,000  Level Cleveland Center
09:22PM 42.2436 -78.2917 289° West 465 535 36,000  Level Cleveland Center
09:23PM 42.2864 -78.4586 289° West 465 535 36,000  Level Cleveland Center
09:24PM 42.3289 -78.6228 289° West 465 535 36,000  Level Cleveland Center
09:25PM 42.3692 -78.7903 288° West 465 535 36,000  Level Cleveland Center
09:26PM 42.4136 -78.9717 288° West 465 535 36,000  Level Cleveland Center
09:27PM 42.4531 -79.1200 290° West 460 529 36,000  Level Cleveland Center
09:28PM 42.4906 -79.2908 287° West 460 529 36,000  Level Cleveland Center
09:29PM 42.5006 -79.4653 275° West 465 535 36,000  Level Cleveland Center
09:30PM 42.5086 -79.6425 274° West 470 541 36,000  Level Cleveland Center
09:31PM 42.5181 -79.8169 274° West 470 541 36,000  Level Cleveland Center
09:32PM 42.5253 -79.9917 273° West 470 541 36,000  Level Cleveland Center
09:33PM 42.5325 -80.1719 273° West 470 541 36,000  Level Cleveland Center
09:34PM 42.5414 -80.3661 274° West 477 549 36,000  Level Cleveland Center
09:35PM 42.5478 -80.5436 273° West 471 542 36,000  Level Cleveland Center
09:36PM 42.5539 -80.7183 273° West 483 556 36,000  Level Cleveland Center
09:37PM 42.5578 -80.8961 272° West 473 544 36,000  Level Cleveland Center
09:38PM 42.5675 -81.0708 274° West 479 551 36,000  Level Cleveland Center
09:39PM 42.5728 -81.2542 272° West 479 551 36,000  Level Cleveland Center
09:40PM 42.5822 -81.4292 274° West 479 551 36,000  Level Cleveland Center
09:41PM 42.6100 -81.6044 282° West 474 545 36,000  Level Cleveland Center
09:42PM 42.6394 -81.7742 283° West 474 545 36,000  Level Cleveland Center
09:43PM 42.6689 -81.9442 283° West 467 537 36,000  Level Cleveland Center
09:44PM 42.7000 -82.1172 284° West 467 537 36,000  Level Cleveland Center
09:45PM 42.7289 -82.2931 283° West 472 543 36,000  Level Cleveland Center
09:46PM 42.7575 -82.4664 283° West 472 543 36,000  Level Cleveland Center
09:47PM 42.7753 -82.6394 278° West 472 543 36,000  Level Cleveland Center
09:48PM 42.7867 -82.8153 275° West 467 537 36,000  Level Cleveland Center
09:49PM 42.7975 -82.9969 275° West 467 537 36,000  Level Cleveland Center
09:50PM 42.8061 -83.1725 274° West 472 543 36,000  Level Cleveland Center
09:51PM 42.8189 -83.3486 276° West 472 543 36,000  Level Cleveland Center
09:52PM 42.8289 -83.5275 274° West 472 543 36,000 -360 Level Cleveland Center
09:53PM 42.8392 -83.7008 275° West 472 543 35,300 -900 Descending Cleveland Center
09:54PM 42.8486 -83.8797 274° West 472 543 34,300 -1,020 Descending Cleveland Center
09:55PM 42.8581 -84.0586 274° West 472 543 33,300 -1,020 Descending Cleveland Center
09:56PM 42.8669 -84.2378 274° West 477 549 32,300 -540 Descending Cleveland Center
09:58PM 42.8806 -84.4906 274° West 475 547 32,000 -120 Descending Chicago Center
09:59PM 42.8761 -84.6694 268° West 480 552 32,000  Level Chicago Center
10:00PM 42.8564 -84.8458 261° West 472 543 32,000  Level Chicago Center
10:01PM 42.8375 -85.0244 262° West 469 540 32,000  Level Chicago Center
10:02PM 42.8153 -85.2325 262° West 471 542 32,000  Level Chicago Center
10:03PM 42.7967 -85.4097 262° West 471 542 32,000 -1,020 Level Chicago Center
10:04PM 42.7725 -85.5839 259° West 469 540 30,000 -2,160 Descending Chicago Center
10:05PM 42.7408 -85.7511 256° West 458 527 27,600 -2,400 Descending Chicago Center
10:06PM 42.7114 -85.9128 256° West 444 511 25,200 -2,280 Descending Chicago Center
10:07PM 42.6831 -86.0683 256° West 428 493 23,000 -2,160 Descending Chicago Center
10:08PM 42.6558 -86.2178 256° West 410 472 20,800 -1,500 Descending Chicago Center
10:09PM 42.6292 -86.3600 256° West 392 451 20,000 -420 Descending Chicago Center
10:10PM 42.6017 -86.5028 255° West 390 449 20,000 -60 Level Chicago Center
10:11PM 42.5761 -86.6458 256° West 391 450 19,900 -1,140 Descending Chicago Center
10:12PM 42.5408 -86.8058 253° West 385 443 17,700 -1,920 Descending Chicago Center
10:13PM 42.5100 -86.9172 249° West 375 432 16,000 -1,860 Descending Chicago Center
10:14PM 42.4744 -87.0442 249° West 365 420 14,000 -2,100 Descending Chicago Center
10:15PM 42.4328 -87.1939 249° West 356 410 11,800 -1,980 Descending Chicago Center
10:16PM 42.3994 -87.3128 249° West 341 392 10,000 -900 Descending Chicago Center
10:17PM 42.3694 -87.4203 249° West 335 386 10,000  Level Chicago Center
10:18PM 42.3350 -87.5386 249° West 340 391 10,000  Level Chicago Center
10:19PM 42.2464 -87.6325 218° Southwest 337 388 10,000 -60 Level Chicago Center
10:20PM 42.1767 -87.7072 218° Southwest 325 374 9,900 -840 Descending Chicago Center
10:21PM 42.1131 -87.7731 218° Southwest 293 337 8,300 -1,680 Descending Chicago Center
10:22PM 42.0833 -87.8333 236° Southwest 286 329 7,300 -900 Descending Chicago TRACON
10:23PM 42.0667 -87.9167 255° West 283 326 7,000 -180 Descending Chicago TRACON
10:24PM 42.0500 -88.0167 257° West 253 291 7,000 -600 Level Chicago TRACON
10:25PM 42.0500 -88.1000 270° West 227 261 5,900 -1,140 Descending Chicago TRACON
10:25PM 42.0378 -88.1339 244° Southwest 230 265 5,200 -1,260 Descending Chicago Center
10:26PM 41.9833 -88.1189 168° South 235 270 3,900 -1,320 Descending Chicago Center
10:27PM 41.9667 -88.0667 113° Southeast 208 239 3,300 -1,380 Descending Chicago TRACON
10:28PM 41.9667 -88.0000 90° East 167 192 1,900 -1,140 Descending Chicago TRACON
10:29PM 41.9667 -87.9500 90° East 129 148 1,100 -840 Descending Chicago TRACON
10:31PM 41.9667 -87.9000 90° East  Level FlightAware Approximate